This is the latest recevied weather packets stored in our database for station/object OK1PMP-6. If no packets are shown the sender has not sent any weather packets the latest 10 day(s).
| Time | Temp. | Humidity | Pressure | Rain* | Wind** | Luminosity | Snow |
|---|---|---|---|---|---|---|---|
| 1778358978 | 8.89° C | 75% | 1022.5 hPa | 0 mm | - | 0 W/m² | - |
| 1778358079 | 9.44° C | 75% | 1022.4 hPa | 0 mm | - | 0 W/m² | - |
| 1778357179 | 9.44° C | 76% | 1022.6 hPa | 0 mm | - | 0 W/m² | - |
| 1778356266 | 8.89° C | 76% | 1022.5 hPa | 0 mm | - | 0 W/m² | - |
| 1778355366 | 9.44° C | 74% | 1022.2 hPa | 0 mm | - | 0 W/m² | - |
| 1778354461 | 9.44° C | 74% | 1022.4 hPa | 0 mm | - | 0 W/m² | - |
| 1778353560 | 10° C | 73% | 1022.3 hPa | 0 mm | - | 0 W/m² | - |
| 1778352660 | 10.56° C | 71% | 1022.5 hPa | 0 mm | - | 0 W/m² | - |
| 1778351760 | 11.67° C | 68% | 1022.3 hPa | 0 mm | - | 2 W/m² | - |
| 1778350859 | 12.22° C | 66% | 1022.2 hPa | 0 mm | - | 5 W/m² | - |
| 1778349960 | 12.78° C | 64% | 1022.2 hPa | 0 mm | - | 11 W/m² | - |
| 1778349066 | 13.33° C | 63% | 1022.3 hPa | 0 mm | - | 19 W/m² | - |
| 1778348158 | 13.33° C | 62% | 1022.4 hPa | 0 mm | - | 27 W/m² | - |
| 1778347262 | 14.44° C | 60% | 1022.4 hPa | 0 mm | - | 35 W/m² | - |
| 1778346363 | 15° C | 59% | 1022.5 hPa | 0 mm | - | 58 W/m² | - |
| 1778345457 | 14.44° C | 61% | 1022.5 hPa | 0 mm | - | 62 W/m² | - |
| 1778344553 | 14.44° C | 60% | 1022.4 hPa | 0 mm | - | 67 W/m² | - |
| 1778343657 | 14.44° C | 59% | 1022.5 hPa | 0 mm | - | 77 W/m² | - |
| 1778342752 | 14.44° C | 59% | 1022.3 hPa | 0 mm | - | 85 W/m² | - |
| 1778341847 | 14.44° C | 60% | 1022.6 hPa | 0 mm | - | 95 W/m² | - |
| 1778340951 | 14.44° C | 60% | 1022.6 hPa | 0 mm | - | 100 W/m² | - |
| 1778340012 | 14.44° C | 60% | 1022.5 hPa | 0 mm | - | 91 W/m² | - |
| 1778339105 | 14.44° C | 59% | 1022.5 hPa | 0 mm | - | 108 W/m² | - |
| 1778338203 | 14.44° C | 61% | 1022.6 hPa | 0 mm | - | 134 W/m² | - |
| 1778337303 | 15° C | 60% | 1022.7 hPa | 0 mm | - | 132 W/m² | - |
* Rain latest hour (hover to see other rain measurements)
** Current wind speed in m/s (hover to see current wind gust speed)